Time;durP1;ratioP1;P1;durP2;ratioP2;P2;SDS_P1;SDS_P2;PMS_P1;PMS_P2;Temp;Humidity;BMP_temperature;BMP_pressure;BME280_temperature;BME280_humidity;BME280_pressure;Samples;Min_cycle;Max_cycle;Signal;HPM_P1;HPM_P2
2023/11/07 00:01:55;;;;;;;6.67;1.77;;;;;;;;;;5132092;27;22220;-76
2023/11/07 00:04:21;;;;;;;4.13;1.50;;;;;;;;;;5124364;27;20195;-76
2023/11/07 00:06:49;;;;;;;3.40;1.63;;;;;;;;;;5121881;27;20195;-77
2023/11/07 00:09:17;;;;;;;2.90;1.67;;;;;;;;;;5135297;27;20555;-76
2023/11/07 00:11:44;;;;;;;2.10;1.67;;;;;;;;;;5134342;27;20226;-75
2023/11/07 00:14:12;;;;;;;3.23;1.60;;;;;;;;;;5134879;27;20676;-76
2023/11/07 00:16:39;;;;;;;3.43;1.50;;;;;;;;;;5134712;27;20214;-76
2023/11/07 00:19:07;;;;;;;1.63;1.53;;;;;;;;;;5134846;27;20202;-75
2023/11/07 00:21:34;;;;;;;4.47;1.47;;;;;;;;;;5121095;27;20668;-76
2023/11/07 00:24:01;;;;;;;5.63;3.03;;;;;;;;;;5123000;27;20747;-76
2023/11/07 00:26:30;;;;;;;3.20;1.80;;;;;;;;;;5133018;27;20295;-77
2023/11/07 00:28:56;;;;;;;4.23;2.00;;;;;;;;;;5134254;27;20203;-78
2023/11/07 00:31:24;;;;;;;4.37;2.33;;;;;;;;;;5134443;27;20305;-78
2023/11/07 00:33:51;;;;;;;4.53;1.90;;;;;;;;;;5134331;27;20223;-78
2023/11/07 00:36:17;;;;;;;3.77;1.80;;;;;;;;;;5134967;27;20199;-77
2023/11/07 00:38:44;;;;;;;3.33;1.83;;;;;;;;;;5134610;27;20205;-78
2023/11/07 00:41:13;;;;;;;3.63;2.03;;;;;;;;;;5134282;27;20203;-78
2023/11/07 00:43:41;;;;;;;5.00;1.90;;;;;;;;;;5134619;27;20213;-78
2023/11/07 00:46:08;;;;;;;7.57;1.80;;;;;;;;;;5107679;27;20193;-78
2023/11/07 00:48:35;;;;;;;5.17;1.90;;;;;;;;;;5134035;27;20207;-78
2023/11/07 00:51:02;;;;;;;2.73;1.73;;;;;;;;;;5134479;27;20585;-78
2023/11/07 00:53:28;;;;;;;5.30;1.50;;;;;;;;;;5133829;27;20236;-78
2023/11/07 00:55:55;;;;;;;6.37;2.03;;;;;;;;;;5133902;27;20577;-78
2023/11/07 00:58:22;;;;;;;1.90;1.60;;;;;;;;;;5133686;27;20218;-78
2023/11/07 01:00:50;;;;;;;5.67;2.27;;;;;;;;;;5132567;27;20191;-80
2023/11/07 01:03:18;;;;;;;2.97;2.23;;;;;;;;;;5132949;27;20213;-76
2023/11/07 01:05:45;;;;;;;3.90;2.67;;;;;;;;;;5121957;27;20583;-76
2023/11/07 01:08:12;;;;;;;5.90;1.83;;;;;;;;;;5133282;27;20195;-76
2023/11/07 01:10:38;;;;;;;6.13;2.53;;;;;;;;;;5133489;27;20234;-76
2023/11/07 01:13:05;;;;;;;5.27;2.00;;;;;;;;;;5133926;27;21310;-76
2023/11/07 01:15:32;;;;;;;3.83;1.60;;;;;;;;;;5133973;27;20346;-77
2023/11/07 01:18:00;;;;;;;7.67;1.97;;;;;;;;;;5133632;27;20222;-78
2023/11/07 01:20:27;;;;;;;3.23;1.83;;;;;;;;;;5133289;27;20619;-78
2023/11/07 01:22:54;;;;;;;5.03;2.20;;;;;;;;;;5119505;27;20617;-78
2023/11/07 01:25:21;;;;;;;2.83;1.73;;;;;;;;;;5133735;27;20252;-78
2023/11/07 01:27:47;;;;;;;2.83;1.70;;;;;;;;;;5133924;27;20214;-78
2023/11/07 01:30:14;;;;;;;3.73;1.90;;;;;;;;;;5133852;27;20213;-78
2023/11/07 01:32:42;;;;;;;2.93;1.73;;;;;;;;;;5131137;27;20199;-77
2023/11/07 01:35:10;;;;;;;2.33;1.87;;;;;;;;;;5122240;27;20207;-78
2023/11/07 01:37:37;;;;;;;3.50;1.90;;;;;;;;;;5132834;27;20222;-78
2023/11/07 01:40:05;;;;;;;2.60;1.63;;;;;;;;;;5133184;27;20198;-78
2023/11/07 01:42:32;;;;;;;2.70;2.03;;;;;;;;;;5133419;27;20232;-78
2023/11/07 01:45:00;;;;;;;7.37;1.57;;;;;;;;;;5133644;27;20195;-78
2023/11/07 01:47:27;;;;;;;4.83;1.90;;;;;;;;;;5129556;27;20276;-80
2023/11/07 01:49:54;;;;;;;6.23;2.53;;;;;;;;;;5123504;27;20210;-78
2023/11/07 01:52:22;;;;;;;4.73;1.87;;;;;;;;;;5119061;27;20203;-79
2023/11/07 01:54:51;;;;;;;3.73;1.53;;;;;;;;;;5132964;27;20590;-78
2023/11/07 01:57:18;;;;;;;5.13;1.97;;;;;;;;;;5132690;27;20227;-78
2023/11/07 01:59:45;;;;;;;2.13;1.53;;;;;;;;;;5133056;27;20202;-78
2023/11/07 02:02:18;;;;;;;5.83;1.90;;;;;;;;;;5132913;27;20209;-78
2023/11/07 02:04:45;;;;;;;5.33;1.87;;;;;;;;;;5132609;27;20247;-78
2023/11/07 02:07:12;;;;;;;3.37;1.43;;;;;;;;;;5126146;27;20199;-78
2023/11/07 02:09:41;;;;;;;1.70;1.60;;;;;;;;;;5126248;27;20559;-79
2023/11/07 02:12:09;;;;;;;2.57;1.67;;;;;;;;;;5132617;27;20599;-78
2023/11/07 02:14:36;;;;;;;2.80;1.33;;;;;;;;;;5131989;27;20225;-79
2023/11/07 02:17:04;;;;;;;3.93;1.87;;;;;;;;;;5132784;27;20218;-78
2023/11/07 02:19:31;;;;;;;3.50;1.80;;;;;;;;;;5132149;27;20636;-78
2023/11/07 02:21:59;;;;;;;6.30;2.00;;;;;;;;;;5132675;27;20230;-79
2023/11/07 02:24:28;;;;;;;5.03;1.70;;;;;;;;;;5131816;27;20198;-78
2023/11/07 02:26:55;;;;;;;3.20;1.60;;;;;;;;;;5132168;27;20199;-78
2023/11/07 02:29:22;;;;;;;2.43;1.83;;;;;;;;;;5131868;27;20191;-79
2023/11/07 02:31:48;;;;;;;3.97;2.00;;;;;;;;;;5132315;27;20194;-78
2023/11/07 02:34:15;;;;;;;3.03;2.00;;;;;;;;;;5118030;27;20202;-79
2023/11/07 02:36:42;;;;;;;3.13;1.60;;;;;;;;;;5132305;27;20210;-78
2023/11/07 02:39:12;;;;;;;4.73;1.87;;;;;;;;;;5131605;27;20206;-78
2023/11/07 02:41:40;;;;;;;2.67;1.80;;;;;;;;;;5132225;27;20201;-78
2023/11/07 02:44:09;;;;;;;5.80;1.77;;;;;;;;;;5131808;27;20210;-78
2023/11/07 02:46:37;;;;;;;7.43;3.03;;;;;;;;;;5132387;27;20195;-78
2023/11/07 02:49:04;;;;;;;6.37;2.53;;;;;;;;;;5131175;27;20613;-78
2023/11/07 02:51:31;;;;;;;3.87;1.50;;;;;;;;;;5132195;27;20203;-78
2023/11/07 02:53:57;;;;;;;1.50;1.40;;;;;;;;;;5131184;27;20205;-78
2023/11/07 02:56:26;;;;;;;3.33;1.43;;;;;;;;;;5131774;27;20198;-78
2023/11/07 02:58:54;;;;;;;1.77;1.60;;;;;;;;;;5131293;27;20271;-79
2023/11/07 03:01:21;;;;;;;3.70;1.67;;;;;;;;;;5132122;27;20199;-79
2023/11/07 03:03:49;;;;;;;3.00;1.40;;;;;;;;;;5132301;27;20210;-78
2023/11/07 03:06:16;;;;;;;2.87;1.83;;;;;;;;;;5131982;27;20222;-78
2023/11/07 03:08:43;;;;;;;3.33;1.73;;;;;;;;;;5131538;27;20197;-79
2023/11/07 03:11:09;;;;;;;2.90;1.30;;;;;;;;;;5131945;27;20347;-79
2023/11/07 03:13:36;;;;;;;3.50;1.60;;;;;;;;;;5117472;27;20199;-79
2023/11/07 03:16:06;;;;;;;3.13;2.13;;;;;;;;;;5131482;27;20199;-78
2023/11/07 03:18:33;;;;;;;2.70;1.90;;;;;;;;;;5131216;27;20214;-79
2023/11/07 03:20:59;;;;;;;4.03;1.70;;;;;;;;;;5118327;28;20203;-78
2023/11/07 03:23:27;;;;;;;3.40;1.70;;;;;;;;;;5130670;27;20194;-79
2023/11/07 03:25:54;;;;;;;3.67;2.13;;;;;;;;;;5131937;28;20206;-82
2023/11/07 03:28:21;;;;;;;4.47;1.70;;;;;;;;;;5104716;28;20737;-78
2023/11/07 03:30:48;;;;;;;2.93;1.37;;;;;;;;;;5125695;28;20198;-78
2023/11/07 03:33:17;;;;;;;5.17;2.27;;;;;;;;;;5121426;28;20203;-78
2023/11/07 03:35:46;;;;;;;4.03;1.70;;;;;;;;;;5131127;28;20199;-78
2023/11/07 03:38:13;;;;;;;8.97;1.70;;;;;;;;;;5117109;28;20724;-78
2023/11/07 03:40:40;;;;;;;3.43;1.77;;;;;;;;;;5131072;28;20258;-78
2023/11/07 03:43:07;;;;;;;2.80;1.60;;;;;;;;;;5131333;28;20215;-78
2023/11/07 03:45:34;;;;;;;2.93;1.67;;;;;;;;;;5131346;28;20691;-78
2023/11/07 03:48:01;;;;;;;5.63;2.23;;;;;;;;;;5131110;28;20596;-78
2023/11/07 03:50:30;;;;;;;5.60;1.43;;;;;;;;;;5131494;28;20207;-78
2023/11/07 03:52:57;;;;;;;1.57;1.33;;;;;;;;;;5131143;28;20629;-78
2023/11/07 03:55:23;;;;;;;3.47;1.57;;;;;;;;;;5130844;28;20715;-78
2023/11/07 03:57:50;;;;;;;8.13;2.33;;;;;;;;;;5121582;28;20592;-78
2023/11/07 04:00:19;;;;;;;9.33;6.30;;;;;;;;;;5130179;28;20209;-78
2023/11/07 04:02:46;;;;;;;3.37;2.83;;;;;;;;;;5131043;28;20210;-78
2023/11/07 04:05:12;;;;;;;5.73;3.77;;;;;;;;;;5130435;28;20206;-78
2023/11/07 04:07:41;;;;;;;15.47;13.77;;;;;;;;;;5131656;28;20210;-78
2023/11/07 04:10:08;;;;;;;8.60;6.27;;;;;;;;;;5130174;27;20294;-78
2023/11/07 04:12:36;;;;;;;9.23;5.80;;;;;;;;;;5131399;28;20233;-78
2023/11/07 04:15:06;;;;;;;8.33;7.53;;;;;;;;;;5131378;28;20230;-78
2023/11/07 04:17:33;;;;;;;23.97;21.47;;;;;;;;;;5131434;28;20203;-80
2023/11/07 04:20:01;;;;;;;12.30;10.30;;;;;;;;;;5130035;27;20198;-80
2023/11/07 04:22:28;;;;;;;7.57;6.87;;;;;;;;;;5131098;27;20237;-80
2023/11/07 04:24:56;;;;;;;15.67;9.60;;;;;;;;;;5130866;28;20209;-79
2023/11/07 04:27:24;;;;;;;4.20;2.97;;;;;;;;;;5131588;28;20203;-80
2023/11/07 04:29:50;;;;;;;2.57;2.17;;;;;;;;;;5130863;28;20248;-80
2023/11/07 04:32:17;;;;;;;3.73;1.83;;;;;;;;;;5133645;28;20195;-78
2023/11/07 04:34:44;;;;;;;2.60;2.30;;;;;;;;;;5120782;28;20195;-80
2023/11/07 04:37:11;;;;;;;3.83;2.47;;;;;;;;;;5134567;27;20664;-79
2023/11/07 04:39:38;;;;;;;10.00;6.57;;;;;;;;;;5134006;27;20605;-79
2023/11/07 04:42:07;;;;;;;33.57;20.23;;;;;;;;;;5133124;27;20202;-80
2023/11/07 04:44:34;;;;;;;15.83;9.70;;;;;;;;;;5120810;27;20194;-80
2023/11/07 04:47:02;;;;;;;45.33;24.53;;;;;;;;;;5134256;27;20203;-80
2023/11/07 04:49:31;;;;;;;75.10;41.67;;;;;;;;;;5125997;27;20195;-80
2023/11/07 04:51:58;;;;;;;41.73;22.53;;;;;;;;;;5116602;27;20200;-80
2023/11/07 04:54:25;;;;;;;13.63;9.50;;;;;;;;;;5134205;27;20202;-80
2023/11/07 04:56:54;;;;;;;12.50;6.60;;;;;;;;;;5134166;27;20210;-80
2023/11/07 04:59:23;;;;;;;6.27;4.33;;;;;;;;;;5134123;27;20222;-79
2023/11/07 05:01:50;;;;;;;6.77;3.23;;;;;;;;;;5133645;27;20591;-79
2023/11/07 05:04:17;;;;;;;3.57;2.20;;;;;;;;;;5133101;27;20203;-79
2023/11/07 05:06:44;;;;;;;6.83;1.90;;;;;;;;;;5133124;27;20210;-80
2023/11/07 05:09:12;;;;;;;2.47;1.80;;;;;;;;;;5123993;27;20203;-79
2023/11/07 05:11:39;;;;;;;11.37;6.40;;;;;;;;;;5116308;27;20216;-81
2023/11/07 05:14:07;;;;;;;20.93;14.20;;;;;;;;;;5132974;27;20669;-81
2023/11/07 05:16:36;;;;;;;26.57;19.17;;;;;;;;;;5132338;27;20199;-80
2023/11/07 05:19:03;;;;;;;23.17;17.37;;;;;;;;;;5125219;27;20672;-79
2023/11/07 05:21:30;;;;;;;21.07;16.23;;;;;;;;;;5133590;27;20239;-81
2023/11/07 05:23:56;;;;;;;11.23;8.53;;;;;;;;;;5133908;27;20210;-81
2023/11/07 05:26:23;;;;;;;17.57;10.93;;;;;;;;;;5132585;27;20203;-81
2023/11/07 05:28:50;;;;;;;8.77;6.57;;;;;;;;;;5133167;27;20207;-81
2023/11/07 05:31:17;;;;;;;6.73;4.87;;;;;;;;;;5133042;27;20672;-81
2023/11/07 05:33:45;;;;;;;6.60;4.63;;;;;;;;;;5132892;27;20282;-81
2023/11/07 05:36:15;;;;;;;7.27;3.90;;;;;;;;;;5126158;27;20203;-81
2023/11/07 05:38:43;;;;;;;5.10;3.37;;;;;;;;;;5125672;27;20223;-81
2023/11/07 05:41:10;;;;;;;4.80;3.53;;;;;;;;;;5133516;27;20230;-81
2023/11/07 05:43:37;;;;;;;6.77;4.70;;;;;;;;;;5133042;27;20199;-81
2023/11/07 05:46:05;;;;;;;8.17;5.33;;;;;;;;;;5132294;27;20210;-81
2023/11/07 05:48:32;;;;;;;11.20;6.70;;;;;;;;;;5132251;27;20203;-82
2023/11/07 05:51:00;;;;;;;8.87;6.73;;;;;;;;;;5133548;27;20217;-80
2023/11/07 05:53:27;;;;;;;9.97;5.70;;;;;;;;;;5133488;27;20206;-81
2023/11/07 05:55:54;;;;;;;10.33;5.83;;;;;;;;;;5133217;27;20198;-80
2023/11/07 05:58:21;;;;;;;7.20;5.23;;;;;;;;;;5132689;27;20222;-81
2023/11/07 06:00:48;;;;;;;9.40;6.63;;;;;;;;;;5132591;27;20260;-80
2023/11/07 06:03:14;;;;;;;7.23;4.67;;;;;;;;;;5132367;27;20237;-80
2023/11/07 06:05:41;;;;;;;7.80;3.03;;;;;;;;;;5124295;27;20235;-80
2023/11/07 06:08:10;;;;;;;4.83;2.17;;;;;;;;;;5127487;27;20286;-81
2023/11/07 06:10:38;;;;;;;8.97;3.03;;;;;;;;;;5132592;27;20284;-81
2023/11/07 06:13:05;;;;;;;7.17;3.87;;;;;;;;;;5132755;27;20206;-80
2023/11/07 06:15:32;;;;;;;7.83;5.03;;;;;;;;;;5132658;27;20592;-80
2023/11/07 06:17:59;;;;;;;4.00;3.60;;;;;;;;;;5132870;27;20615;-80
2023/11/07 06:20:26;;;;;;;8.07;3.63;;;;;;;;;;5132182;27;20213;-80
2023/11/07 06:22:53;;;;;;;7.10;3.80;;;;;;;;;;5132556;27;20209;-80
2023/11/07 06:25:21;;;;;;;7.17;3.80;;;;;;;;;;5131683;27;20383;-80
2023/11/07 06:27:49;;;;;;;4.43;2.57;;;;;;;;;;5129124;27;20219;-80
2023/11/07 06:30:17;;;;;;;7.33;3.10;;;;;;;;;;5121367;27;20236;-80
2023/11/07 06:32:45;;;;;;;8.00;3.10;;;;;;;;;;5128882;27;20199;-80
2023/11/07 06:35:12;;;;;;;9.63;3.70;;;;;;;;;;5121609;27;20294;-80
2023/11/07 06:37:39;;;;;;;6.37;3.90;;;;;;;;;;5132800;27;20205;-80
2023/11/07 06:40:13;;;;;;;8.73;4.00;;;;;;;;;;5121300;27;20240;-80
2023/11/07 06:42:42;;;;;;;6.07;3.70;;;;;;;;;;5131032;27;20197;-80
2023/11/07 06:45:11;;;;;;;5.30;3.20;;;;;;;;;;5132028;27;20206;-80
2023/11/07 06:47:40;;;;;;;5.77;4.30;;;;;;;;;;5131991;27;20195;-80
2023/11/07 06:50:09;;;;;;;5.50;3.80;;;;;;;;;;5131856;27;20263;-80
2023/11/07 06:52:38;;;;;;;4.57;3.13;;;;;;;;;;5098439;28;20195;-80
2023/11/07 06:55:06;;;;;;;9.67;3.63;;;;;;;;;;5124846;27;20688;-80
2023/11/07 06:57:33;;;;;;;5.43;2.93;;;;;;;;;;5119244;27;20638;-79
2023/11/07 07:00:05;;;;;;;5.27;2.87;;;;;;;;;;5131694;27;20313;-77
2023/11/07 07:02:32;;;;;;;4.77;3.17;;;;;;;;;;5131821;27;20202;-77
2023/11/07 07:04:59;;;;;;;5.03;2.93;;;;;;;;;;5131349;27;20237;-77
2023/11/07 07:07:26;;;;;;;5.70;4.07;;;;;;;;;;5132066;27;20563;-77
2023/11/07 07:09:53;;;;;;;3.57;3.17;;;;;;;;;;5131186;27;20570;-77
2023/11/07 07:12:21;;;;;;;4.53;2.53;;;;;;;;;;5132588;27;20662;-77
2023/11/07 07:14:47;;;;;;;6.27;2.20;;;;;;;;;;5131237;27;20227;-77
2023/11/07 07:17:19;;;;;;;2.70;1.60;;;;;;;;;;5132139;27;20627;-77
2023/11/07 07:19:46;;;;;;;4.63;1.60;;;;;;;;;;5131179;27;20283;-77
2023/11/07 07:22:14;;;;;;;7.20;2.47;;;;;;;;;;5131932;28;20203;-78
2023/11/07 07:24:41;;;;;;;7.00;2.33;;;;;;;;;;5131439;28;20241;-77
2023/11/07 07:27:11;;;;;;;4.47;1.83;;;;;;;;;;5131978;28;20661;-78
2023/11/07 07:29:38;;;;;;;2.40;1.60;;;;;;;;;;5131929;28;20226;-77
2023/11/07 07:32:05;;;;;;;3.00;1.60;;;;;;;;;;5131320;28;20209;-77
2023/11/07 07:34:33;;;;;;;1.90;1.30;;;;;;;;;;5125687;28;20199;-77
2023/11/07 07:37:00;;;;;;;2.37;1.47;;;;;;;;;;5123888;28;20199;-77
2023/11/07 07:39:31;;;;;;;5.97;1.77;;;;;;;;;;5131306;28;20222;-77
2023/11/07 07:42:00;;;;;;;2.70;1.50;;;;;;;;;;5131466;28;20199;-77
2023/11/07 07:44:26;;;;;;;4.60;2.27;;;;;;;;;;5131140;28;20256;-78
2023/11/07 07:46:53;;;;;;;3.87;2.27;;;;;;;;;;5131384;28;20577;-78
2023/11/07 07:49:23;;;;;;;3.67;2.50;;;;;;;;;;5105164;28;20196;-78
2023/11/07 07:51:53;;;;;;;4.70;2.00;;;;;;;;;;5130908;28;20200;-78
2023/11/07 07:54:22;;;;;;;16.23;7.57;;;;;;;;;;5131380;28;20209;-78
2023/11/07 07:56:54;;;;;;;7.53;4.13;;;;;;;;;;5131055;28;20206;-78
2023/11/07 07:59:23;;;;;;;3.73;2.77;;;;;;;;;;5131262;28;20230;-78
2023/11/07 08:01:52;;;;;;;3.20;1.60;;;;;;;;;;5131123;28;20695;-78
2023/11/07 08:04:21;;;;;;;4.57;1.80;;;;;;;;;;5130973;28;20213;-78
2023/11/07 08:06:48;;;;;;;2.07;1.57;;;;;;;;;;5130606;28;20197;-77
2023/11/07 08:09:18;;;;;;;4.37;1.80;;;;;;;;;;5132074;27;20209;-78
2023/11/07 08:11:45;;;;;;;4.63;2.13;;;;;;;;;;5134500;27;20243;-78
2023/11/07 08:14:12;;;;;;;2.93;1.50;;;;;;;;;;5134883;27;20271;-78
2023/11/07 08:16:41;;;;;;;6.30;2.83;;;;;;;;;;5134895;27;20197;-78
2023/11/07 08:19:09;;;;;;;3.43;1.57;;;;;;;;;;5134836;27;20271;-78
2023/11/07 08:21:36;;;;;;;7.33;1.83;;;;;;;;;;5134703;27;20194;-78
2023/11/07 08:24:03;;;;;;;2.20;1.57;;;;;;;;;;5134831;27;20286;-78
2023/11/07 08:26:33;;;;;;;6.20;1.63;;;;;;;;;;5134850;27;20686;-78
2023/11/07 08:29:00;;;;;;;2.13;1.33;;;;;;;;;;5134409;27;20289;-78
2023/11/07 08:31:27;;;;;;;2.93;2.33;;;;;;;;;;5134426;27;20726;-78
2023/11/07 08:33:56;;;;;;;9.23;4.50;;;;;;;;;;5134709;27;20207;-78
2023/11/07 08:36:22;;;;;;;14.10;6.20;;;;;;;;;;5134228;27;20211;-78
2023/11/07 08:38:49;;;;;;;13.53;4.70;;;;;;;;;;5134545;27;20198;-78
2023/11/07 08:41:16;;;;;;;10.77;4.83;;;;;;;;;;5134125;27;20631;-78
2023/11/07 08:43:45;;;;;;;9.20;4.33;;;;;;;;;;5133749;27;20206;-78
2023/11/07 08:46:18;;;;;;;8.37;4.37;;;;;;;;;;5134540;27;20202;-78
2023/11/07 08:48:45;;;;;;;16.40;5.00;;;;;;;;;;5133798;27;20993;-78
2023/11/07 08:51:14;;;;;;;9.67;5.03;;;;;;;;;;5134470;27;20214;-78
2023/11/07 08:53:43;;;;;;;18.57;6.80;;;;;;;;;;5134120;27;20206;-78
2023/11/07 08:56:10;;;;;;;13.97;8.93;;;;;;;;;;5134140;27;20268;-78
2023/11/07 08:58:38;;;;;;;17.13;6.67;;;;;;;;;;5134938;27;20195;-79
2023/11/07 09:01:09;;;;;;;20.73;8.70;;;;;;;;;;5134159;27;20289;-78
2023/11/07 09:03:37;;;;;;;16.23;6.73;;;;;;;;;;5133654;27;20202;-78
2023/11/07 09:06:05;;;;;;;18.63;7.63;;;;;;;;;;5134142;27;20191;-78
2023/11/07 09:08:32;;;;;;;11.63;6.50;;;;;;;;;;5120263;27;20226;-78
2023/11/07 09:10:59;;;;;;;15.00;6.10;;;;;;;;;;5133941;27;20600;-78
2023/11/07 09:13:27;;;;;;;11.00;5.50;;;;;;;;;;5133885;27;20239;-78
2023/11/07 09:15:54;;;;;;;13.37;5.03;;;;;;;;;;5133906;27;20255;-78
2023/11/07 09:18:23;;;;;;;12.33;6.63;;;;;;;;;;5133436;27;20255;-78
2023/11/07 09:20:49;;;;;;;13.53;5.50;;;;;;;;;;5133225;27;20309;-78
2023/11/07 09:23:17;;;;;;;15.97;5.37;;;;;;;;;;5133988;27;20206;-78
2023/11/07 09:25:43;;;;;;;11.33;5.43;;;;;;;;;;5133494;27;20210;-78
2023/11/07 09:28:11;;;;;;;9.20;4.50;;;;;;;;;;5134108;27;20195;-78
2023/11/07 09:30:38;;;;;;;17.90;5.30;;;;;;;;;;5133806;27;20226;-78
2023/11/07 09:33:06;;;;;;;14.63;5.57;;;;;;;;;;5133377;27;20198;-78
2023/11/07 09:35:35;;;;;;;6.40;4.53;;;;;;;;;;5132851;27;20217;-79
2023/11/07 09:38:04;;;;;;;14.00;4.37;;;;;;;;;;5133373;27;20202;-79
2023/11/07 09:40:31;;;;;;;11.50;4.33;;;;;;;;;;5133492;27;20309;-78
2023/11/07 09:43:01;;;;;;;15.07;4.70;;;;;;;;;;5133917;27;20221;-78
2023/11/07 09:45:34;;;;;;;7.80;3.63;;;;;;;;;;5132210;27;20233;-78
2023/11/07 09:48:02;;;;;;;13.57;4.90;;;;;;;;;;5133284;27;20680;-78
2023/11/07 09:50:33;;;;;;;13.33;4.57;;;;;;;;;;5132836;27;20195;-78
2023/11/07 09:53:04;;;;;;;7.73;4.30;;;;;;;;;;5133431;27;20225;-78
2023/11/07 09:55:32;;;;;;;10.23;5.33;;;;;;;;;;5132513;27;20586;-78
2023/11/07 09:58:06;;;;;;;12.73;5.27;;;;;;;;;;5133113;27;20198;-78
2023/11/07 10:00:35;;;;;;;16.33;6.00;;;;;;;;;;5132054;27;20734;-78
2023/11/07 10:03:03;;;;;;;14.47;4.63;;;;;;;;;;5119209;27;20264;-78
2023/11/07 10:05:31;;;;;;;10.77;5.43;;;;;;;;;;5119625;27;20205;-78
2023/11/07 10:07:59;;;;;;;10.10;4.33;;;;;;;;;;5132532;27;20700;-78
2023/11/07 10:10:27;;;;;;;10.47;3.87;;;;;;;;;;5132202;27;20251;-79
2023/11/07 10:12:54;;;;;;;10.97;3.30;;;;;;;;;;5133056;27;20202;-79
2023/11/07 10:15:23;;;;;;;7.50;4.40;;;;;;;;;;5132262;27;20636;-78
2023/11/07 10:17:59;;;;;;;11.57;7.10;;;;;;;;;;5132706;27;20688;-79
2023/11/07 10:20:27;;;;;;;10.17;4.13;;;;;;;;;;5132430;27;20222;-79
2023/11/07 10:22:55;;;;;;;7.23;2.87;;;;;;;;;;5132708;27;20251;-79
2023/11/07 10:25:31;;;;;;;14.60;3.73;;;;;;;;;;5132689;27;20195;-79
2023/11/07 10:28:02;;;;;;;14.43;4.07;;;;;;;;;;5132046;27;20670;-79
2023/11/07 10:30:36;;;;;;;6.90;3.83;;;;;;;;;;5132536;27;20230;-79
2023/11/07 10:33:04;;;;;;;7.17;3.40;;;;;;;;;;5132021;27;20286;-79
2023/11/07 10:35:31;;;;;;;8.80;3.40;;;;;;;;;;5132376;27;20259;-79
2023/11/07 10:37:58;;;;;;;5.93;2.97;;;;;;;;;;5105424;27;20191;-79
2023/11/07 10:40:25;;;;;;;13.43;3.50;;;;;;;;;;5131768;27;20760;-80
2023/11/07 10:42:54;;;;;;;6.53;3.73;;;;;;;;;;5132220;27;20199;-78
2023/11/07 10:45:21;;;;;;;7.13;2.87;;;;;;;;;;5131223;27;20210;-79
2023/11/07 10:47:49;;;;;;;13.80;3.80;;;;;;;;;;5131835;27;20202;-79
2023/11/07 10:50:17;;;;;;;8.73;3.43;;;;;;;;;;5131261;27;20294;-79
2023/11/07 10:52:47;;;;;;;9.50;3.27;;;;;;;;;;5132762;27;20244;-78
2023/11/07 10:55:14;;;;;;;12.40;2.87;;;;;;;;;;5132185;27;20233;-78
2023/11/07 10:57:43;;;;;;;12.13;4.23;;;;;;;;;;5131771;27;20210;-79
2023/11/07 11:00:16;;;;;;;11.07;3.17;;;;;;;;;;5131347;27;20722;-79
2023/11/07 11:02:47;;;;;;;14.67;3.43;;;;;;;;;;5132177;27;20214;-79
2023/11/07 11:05:15;;;;;;;11.67;3.17;;;;;;;;;;5131269;27;20199;-78
2023/11/07 11:07:47;;;;;;;13.00;3.03;;;;;;;;;;5132279;27;20198;-78
2023/11/07 11:10:15;;;;;;;9.07;3.57;;;;;;;;;;5131373;27;20673;-79
2023/11/07 11:12:43;;;;;;;10.87;3.10;;;;;;;;;;5132436;27;20266;-78
2023/11/07 11:15:13;;;;;;;10.43;3.00;;;;;;;;;;5130727;27;20202;-78
2023/11/07 11:17:49;;;;;;;8.23;2.73;;;;;;;;;;5131836;27;20195;-79
2023/11/07 11:20:22;;;;;;;17.73;3.60;;;;;;;;;;5131556;27;20217;-79
2023/11/07 11:22:55;;;;;;;7.63;3.17;;;;;;;;;;5130038;27;20203;-80
2023/11/07 11:25:27;;;;;;;8.30;2.77;;;;;;;;;;5120215;28;20282;-78
2023/11/07 11:27:57;;;;;;;9.67;3.93;;;;;;;;;;5131363;28;20195;-79
2023/11/07 11:30:28;;;;;;;7.50;3.50;;;;;;;;;;5131523;28;20221;-79
2023/11/07 11:33:06;;;;;;;5.13;2.50;;;;;;;;;;5131713;28;20635;-78
2023/11/07 11:35:35;;;;;;;9.83;3.30;;;;;;;;;;5131289;27;20318;-78
2023/11/07 11:38:09;;;;;;;6.77;2.77;;;;;;;;;;5131441;27;20280;-79
2023/11/07 11:40:56;;;;;;;10.23;2.53;;;;;;;;;;5130955;28;20399;-78
2023/11/07 11:43:25;;;;;;;6.33;2.73;;;;;;;;;;5131627;27;20703;-78
2023/11/07 11:45:55;;;;;;;14.20;3.27;;;;;;;;;;5134917;27;20222;-79
2023/11/07 11:49:00;;;;;;;12.63;2.87;;;;;;;;;;5136095;27;20354;-79
2023/11/07 11:51:31;;;;;;;8.63;2.47;;;;;;;;;;5135931;27;20202;-78
2023/11/07 11:53:59;;;;;;;10.97;3.27;;;;;;;;;;5134591;27;20676;-79
2023/11/07 11:56:26;;;;;;;8.63;3.00;;;;;;;;;;5135599;27;20226;-78
2023/11/07 11:59:04;;;;;;;11.33;3.87;;;;;;;;;;5135193;27;20205;-78
2023/11/07 12:01:50;;;;;;;10.93;2.77;;;;;;;;;;5134896;27;20245;-78
2023/11/07 12:04:28;;;;;;;9.77;2.70;;;;;;;;;;5135518;27;20209;-79
2023/11/07 12:07:21;;;;;;;11.93;2.97;;;;;;;;;;5135182;27;20234;-79
2023/11/07 12:09:49;;;;;;;9.07;2.63;;;;;;;;;;5135179;27;20233;-79
2023/11/07 12:12:17;;;;;;;7.70;2.63;;;;;;;;;;5135127;27;20268;-78
2023/11/07 12:14:49;;;;;;;8.87;2.90;;;;;;;;;;5134805;27;20202;-78
2023/11/07 12:17:17;;;;;;;6.03;2.40;;;;;;;;;;5135085;27;20214;-78
2023/11/07 12:19:44;;;;;;;9.67;3.30;;;;;;;;;;5135106;27;20206;-78
2023/11/07 12:22:11;;;;;;;7.53;2.67;;;;;;;;;;5135386;27;20221;-78
2023/11/07 12:24:39;;;;;;;9.53;2.80;;;;;;;;;;5134160;27;20202;-78
2023/11/07 12:27:05;;;;;;;9.10;2.93;;;;;;;;;;5135335;27;20198;-78
2023/11/07 12:29:33;;;;;;;12.70;2.83;;;;;;;;;;5134216;27;20199;-78
2023/11/07 12:32:00;;;;;;;8.60;3.17;;;;;;;;;;5134808;27;20195;-78
2023/11/07 12:34:32;;;;;;;5.90;2.10;;;;;;;;;;5134195;27;20195;-78
2023/11/07 12:37:03;;;;;;;8.30;2.70;;;;;;;;;;5134426;27;20199;-78
2023/11/07 12:39:31;;;;;;;8.53;3.27;;;;;;;;;;5134515;27;20567;-78
2023/11/07 12:41:59;;;;;;;13.90;3.03;;;;;;;;;;5134497;27;20759;-78
2023/11/07 12:44:27;;;;;;;7.67;2.23;;;;;;;;;;5133916;27;20661;-78
2023/11/07 12:46:54;;;;;;;12.93;3.10;;;;;;;;;;5134796;27;20195;-80
2023/11/07 12:49:21;;;;;;;8.63;2.73;;;;;;;;;;5133838;27;20203;-78
2023/11/07 12:51:49;;;;;;;7.03;2.53;;;;;;;;;;5134445;27;20198;-78
2023/11/07 12:54:16;;;;;;;7.00;2.40;;;;;;;;;;5134012;27;20210;-78
2023/11/07 12:56:43;;;;;;;7.10;2.47;;;;;;;;;;5133488;27;20291;-78
2023/11/07 12:59:11;;;;;;;3.83;2.93;;;;;;;;;;5134147;27;20285;-78
2023/11/07 13:01:38;;;;;;;7.93;2.80;;;;;;;;;;5133821;27;20215;-78
2023/11/07 13:04:13;;;;;;;4.73;2.80;;;;;;;;;;5133568;27;20684;-78
2023/11/07 13:06:52;;;;;;;4.97;1.53;;;;;;;;;;5134010;27;20209;-78
2023/11/07 13:09:20;;;;;;;10.23;2.83;;;;;;;;;;5134266;27;20202;-78
2023/11/07 13:11:47;;;;;;;6.17;2.03;;;;;;;;;;5133790;27;20689;-81
2023/11/07 13:14:14;;;;;;;4.80;2.07;;;;;;;;;;5133702;27;20199;-78
2023/11/07 13:16:43;;;;;;;7.57;2.70;;;;;;;;;;5133670;27;20199;-78
2023/11/07 13:19:10;;;;;;;10.03;2.97;;;;;;;;;;5121796;27;20215;-78
2023/11/07 13:21:37;;;;;;;10.20;3.07;;;;;;;;;;5132106;27;20215;-79
2023/11/07 13:24:06;;;;;;;5.30;2.30;;;;;;;;;;5133936;27;20202;-78
2023/11/07 13:26:33;;;;;;;6.70;2.17;;;;;;;;;;5133303;27;20206;-79
2023/11/07 13:29:00;;;;;;;9.63;2.57;;;;;;;;;;5133380;27;20202;-79
2023/11/07 13:31:28;;;;;;;9.23;2.67;;;;;;;;;;5133449;27;20289;-80
2023/11/07 13:33:55;;;;;;;10.33;3.00;;;;;;;;;;5133928;27;20211;-78
2023/11/07 13:36:22;;;;;;;6.37;2.47;;;;;;;;;;5126992;27;20638;-78
2023/11/07 13:38:51;;;;;;;11.70;2.30;;;;;;;;;;5126784;27;20202;-79
2023/11/07 13:41:19;;;;;;;8.80;2.60;;;;;;;;;;5133521;27;20610;-79
2023/11/07 13:43:46;;;;;;;6.93;2.50;;;;;;;;;;5132615;27;20198;-79
2023/11/07 13:46:17;;;;;;;9.47;2.60;;;;;;;;;;5120416;27;20207;-79
2023/11/07 13:48:44;;;;;;;12.20;4.50;;;;;;;;;;5105883;27;20269;-79
2023/11/07 13:51:11;;;;;;;6.23;2.97;;;;;;;;;;5133336;27;20203;-78
2023/11/07 13:53:38;;;;;;;8.70;3.77;;;;;;;;;;5118746;27;20264;-78
2023/11/07 13:56:08;;;;;;;18.33;3.37;;;;;;;;;;5132737;27;20199;-78
2023/11/07 13:58:39;;;;;;;16.97;3.97;;;;;;;;;;5131088;27;20203;-79
2023/11/07 14:01:06;;;;;;;12.67;3.90;;;;;;;;;;5122363;27;20227;-79
2023/11/07 14:03:33;;;;;;;10.40;5.60;;;;;;;;;;5132684;27;20207;-79
2023/11/07 14:06:00;;;;;;;15.07;3.53;;;;;;;;;;5132975;27;20207;-79
2023/11/07 14:08:26;;;;;;;12.47;5.13;;;;;;;;;;5132189;27;20203;-79
2023/11/07 14:10:54;;;;;;;6.57;2.33;;;;;;;;;;5132387;27;20660;-78
2023/11/07 14:13:20;;;;;;;8.87;3.40;;;;;;;;;;5132296;27;20255;-79
2023/11/07 14:15:50;;;;;;;11.77;5.50;;;;;;;;;;5122508;27;20204;-79
2023/11/07 14:18:18;;;;;;;6.07;3.63;;;;;;;;;;5129275;27;20194;-78
2023/11/07 14:20:46;;;;;;;8.53;3.57;;;;;;;;;;5132492;27;20255;-79
2023/11/07 14:23:13;;;;;;;9.73;3.30;;;;;;;;;;5132761;27;20602;-79
2023/11/07 14:25:40;;;;;;;7.73;2.83;;;;;;;;;;5132552;27;20207;-79
2023/11/07 14:28:09;;;;;;;6.07;2.27;;;;;;;;;;5132203;27;20665;-79
2023/11/07 14:30:43;;;;;;;8.03;3.40;;;;;;;;;;5132731;27;20565;-79
2023/11/07 14:33:12;;;;;;;9.77;2.60;;;;;;;;;;5131828;27;20199;-79
2023/11/07 14:35:38;;;;;;;8.07;3.37;;;;;;;;;;5131904;27;20256;-79
2023/11/07 14:38:07;;;;;;;12.83;4.73;;;;;;;;;;5131603;27;20210;-79
2023/11/07 14:40:35;;;;;;;9.33;3.33;;;;;;;;;;5131816;27;20241;-80
2023/11/07 14:43:06;;;;;;;16.07;6.07;;;;;;;;;;5106189;27;20202;-80
2023/11/07 14:45:33;;;;;;;23.77;10.40;;;;;;;;;;5132007;27;20681;-80